createdAt,value
2022-12-17T00:01:06.034Z,10.13
2022-12-17T00:03:51.909Z,11.00
2022-12-17T00:06:37.331Z,10.13
2022-12-17T00:09:22.883Z,10.15
2022-12-17T00:12:09.815Z,9.93
2022-12-17T00:14:55.283Z,11.18
2022-12-17T00:17:41.590Z,11.55
2022-12-17T00:20:27.534Z,11.10
2022-12-17T00:23:20.193Z,11.70
2022-12-17T00:26:13.607Z,12.88
2022-12-17T00:28:59.693Z,10.02
2022-12-17T00:31:46.170Z,12.52
2022-12-17T00:34:31.742Z,12.18
2022-12-17T00:37:17.193Z,10.65
2022-12-17T00:40:02.669Z,11.10
2022-12-17T00:42:48.423Z,12.27
2022-12-17T00:45:33.647Z,10.52
2022-12-17T00:48:19.126Z,9.93
2022-12-17T00:51:04.750Z,11.75
2022-12-17T00:53:50.094Z,10.60
2022-12-17T00:56:35.660Z,10.68
2022-12-17T00:59:21.169Z,10.15
2022-12-17T01:02:06.379Z,11.15
2022-12-17T01:04:52.190Z,10.73
2022-12-17T01:07:37.822Z,10.98
2022-12-17T01:10:23.505Z,11.70
2022-12-17T01:13:09.093Z,10.68
2022-12-17T01:15:55.226Z,10.63
2022-12-17T01:18:42.009Z,11.18
2022-12-17T01:21:27.315Z,10.15
2022-12-17T01:24:12.857Z,10.60
2022-12-17T01:26:58.247Z,11.23
2022-12-17T01:29:43.465Z,11.15
2022-12-17T01:32:29.078Z,10.45
2022-12-17T01:35:14.462Z,10.45
2022-12-17T01:37:59.929Z,10.75
2022-12-17T01:40:45.329Z,10.88
2022-12-17T01:43:31.919Z,11.02
2022-12-17T01:46:17.805Z,10.25
2022-12-17T01:49:06.665Z,11.57
2022-12-17T01:51:54.054Z,13.63
2022-12-17T01:54:39.528Z,11.35
2022-12-17T01:57:26.443Z,11.20
2022-12-17T02:00:25.296Z,11.48
2022-12-17T02:03:10.918Z,11.63
2022-12-17T02:06:17.442Z,10.77
2022-12-17T02:09:11.666Z,10.90
2022-12-17T02:12:20.952Z,11.20
2022-12-17T02:15:14.162Z,12.35
2022-12-17T02:18:11.667Z,11.15
2022-12-17T02:21:05.234Z,12.15
2022-12-17T02:24:08.150Z,10.75
2022-12-17T02:27:19.526Z,10.75
2022-12-17T02:30:09.447Z,12.20
2022-12-17T02:32:58.263Z,11.90
2022-12-17T02:35:54.237Z,11.57
2022-12-17T02:38:44.351Z,11.85
2022-12-17T02:41:34.502Z,11.40
2022-12-17T02:44:28.942Z,10.23
2022-12-17T02:47:16.406Z,11.45
2022-12-17T02:50:01.828Z,9.98
2022-12-17T02:52:48.422Z,10.98
2022-12-17T02:55:33.867Z,11.10
2022-12-17T02:58:19.226Z,10.23
2022-12-17T03:01:04.720Z,11.43
2022-12-17T03:03:50.603Z,10.02
2022-12-17T03:06:36.058Z,9.15
2022-12-17T03:09:21.598Z,8.63
2022-12-17T03:12:07.071Z,10.48
2022-12-17T03:14:52.590Z,11.48
2022-12-17T03:17:38.120Z,10.85
2022-12-17T03:20:24.192Z,10.23
2022-12-17T03:23:09.528Z,9.55
2022-12-17T03:25:55.025Z,11.05
2022-12-17T03:28:40.612Z,9.20
2022-12-17T03:31:26.107Z,9.85
2022-12-17T03:34:11.275Z,10.77
2022-12-17T03:36:56.852Z,10.70
2022-12-17T03:39:42.302Z,10.32
2022-12-17T03:42:27.615Z,11.27
2022-12-17T03:45:12.881Z,10.13
2022-12-17T03:47:58.517Z,10.20
2022-12-17T03:50:43.939Z,10.88
2022-12-17T03:53:29.412Z,10.98
2022-12-17T03:56:14.910Z,9.85
2022-12-17T03:59:00.263Z,10.55
2022-12-17T04:01:45.834Z,10.30
2022-12-17T04:04:31.158Z,9.23
2022-12-17T04:07:16.726Z,10.20
2022-12-17T04:10:02.183Z,10.65
2022-12-17T04:12:47.517Z,10.00
2022-12-17T04:15:33.007Z,10.52
2022-12-17T04:18:18.114Z,10.32
2022-12-17T04:21:05.130Z,11.35
2022-12-17T04:23:50.719Z,11.63
2022-12-17T04:26:36.139Z,11.05
2022-12-17T04:29:21.544Z,11.05
2022-12-17T04:32:07.123Z,9.60
2022-12-17T04:34:52.612Z,11.30
2022-12-17T04:37:38.066Z,9.95
2022-12-17T04:40:23.927Z,11.65
2022-12-17T04:43:09.110Z,11.50
2022-12-17T04:45:54.487Z,12.57
2022-12-17T04:48:41.891Z,11.27
2022-12-17T04:51:27.454Z,12.30
2022-12-17T04:54:12.941Z,11.20
2022-12-17T04:56:58.422Z,10.60
2022-12-17T04:59:43.914Z,10.23
2022-12-17T05:02:29.309Z,9.43
2022-12-17T05:05:14.672Z,11.50
2022-12-17T05:08:00.046Z,11.40
2022-12-17T05:10:45.474Z,10.93
2022-12-17T05:13:30.877Z,10.30
2022-12-17T05:16:16.655Z,9.88
2022-12-17T05:19:01.928Z,11.25
2022-12-17T05:21:47.305Z,10.55
2022-12-17T05:24:32.863Z,10.57
2022-12-17T05:27:18.217Z,11.27
2022-12-17T05:30:03.734Z,9.23
2022-12-17T05:32:49.186Z,10.90
2022-12-17T05:35:34.657Z,10.60
2022-12-17T05:38:24.338Z,10.65
2022-12-17T05:41:10.360Z,10.32
2022-12-17T05:43:55.743Z,11.52
2022-12-17T05:46:41.181Z,10.45
2022-12-17T05:49:26.579Z,11.23
2022-12-17T05:52:12.062Z,10.60
2022-12-17T05:55:17.223Z,12.32
2022-12-17T05:58:02.448Z,10.82
2022-12-17T06:00:47.655Z,10.55
2022-12-17T06:03:33.080Z,11.27
2022-12-17T06:06:18.291Z,11.40
2022-12-17T06:09:03.766Z,11.20
2022-12-17T06:11:49.139Z,11.50
2022-12-17T06:14:34.409Z,10.80
2022-12-17T06:17:19.910Z,11.02
2022-12-17T06:20:05.359Z,10.75
2022-12-17T06:22:50.601Z,9.75
2022-12-17T06:25:35.796Z,14.43
2022-12-17T06:28:21.654Z,11.80
2022-12-17T06:31:11.594Z,13.32
2022-12-17T06:33:56.674Z,11.68
2022-12-17T06:36:42.115Z,13.80
2022-12-17T06:39:27.781Z,15.10
2022-12-17T06:42:13.340Z,13.70
2022-12-17T06:44:59.051Z,14.02
2022-12-17T06:47:44.387Z,13.05
2022-12-17T06:50:29.932Z,13.35
2022-12-17T06:53:23.272Z,14.98
2022-12-17T06:56:08.757Z,15.93
2022-12-17T06:58:54.277Z,14.20
2022-12-17T07:01:39.930Z,14.73
2022-12-17T07:04:25.331Z,14.70
2022-12-17T07:07:10.736Z,14.57
2022-12-17T07:09:57.191Z,12.77
2022-12-17T07:12:42.616Z,12.00
2022-12-17T07:15:28.225Z,10.88
2022-12-17T07:18:21.309Z,11.73
2022-12-17T07:21:07.893Z,11.23
2022-12-17T07:23:53.586Z,9.68
2022-12-17T07:26:42.010Z,18.95
2022-12-17T07:29:27.356Z,21.17
2022-12-17T07:32:12.835Z,17.75
2022-12-17T07:34:58.207Z,21.83
2022-12-17T07:37:43.670Z,16.10
2022-12-17T07:40:29.542Z,16.45
2022-12-17T07:43:15.046Z,13.95
2022-12-17T07:46:00.488Z,13.90
2022-12-17T07:48:45.922Z,17.55
2022-12-17T07:51:31.348Z,17.60
2022-12-17T07:54:16.843Z,19.90
2022-12-17T07:57:02.368Z,24.92
2022-12-17T07:59:47.788Z,24.70
2022-12-17T08:02:33.280Z,22.27
2022-12-17T08:05:18.729Z,20.25
2022-12-17T08:08:04.060Z,18.00
2022-12-17T08:10:49.410Z,20.13
2022-12-17T08:13:35.282Z,17.60
2022-12-17T08:16:20.776Z,17.35
2022-12-17T08:19:06.174Z,15.48
2022-12-17T08:21:51.669Z,14.25
2022-12-17T08:24:37.902Z,16.00
2022-12-17T08:27:23.416Z,14.70
2022-12-17T08:30:08.860Z,16.50
2022-12-17T08:32:54.150Z,18.20
2022-12-17T08:35:39.525Z,20.70
2022-12-17T08:38:25.669Z,22.70
2022-12-17T08:41:11.221Z,23.85
2022-12-17T08:43:56.666Z,24.25
2022-12-17T08:46:42.190Z,22.70
2022-12-17T08:49:27.706Z,22.73
2022-12-17T08:52:13.151Z,23.58
2022-12-17T08:54:59.599Z,21.00
2022-12-17T08:57:45.006Z,20.48
2022-12-17T09:00:30.610Z,20.85
2022-12-17T09:03:18.288Z,18.15
2022-12-17T09:06:03.507Z,23.30
2022-12-17T09:08:48.880Z,22.80
2022-12-17T09:11:34.443Z,20.92
2022-12-17T09:14:22.337Z,19.73
2022-12-17T09:17:07.880Z,19.75
2022-12-17T09:19:53.170Z,16.92
2022-12-17T09:22:38.546Z,15.75
2022-12-17T09:25:24.031Z,17.20
2022-12-17T09:28:09.503Z,18.00
2022-12-17T09:30:54.962Z,17.45
2022-12-17T09:33:40.682Z,20.33
2022-12-17T09:36:26.481Z,18.50
2022-12-17T09:39:11.902Z,19.77
2022-12-17T09:42:15.989Z,17.90
2022-12-17T09:45:09.609Z,19.83
2022-12-17T09:48:07.605Z,18.40
2022-12-17T09:50:53.278Z,18.05
2022-12-17T09:53:41.291Z,19.23
2022-12-17T09:56:30.583Z,18.70
2022-12-17T09:59:16.088Z,19.48
2022-12-17T10:02:01.487Z,21.38
2022-12-17T10:05:13.474Z,22.08
2022-12-17T10:07:59.177Z,20.20
2022-12-17T10:10:51.081Z,19.05
2022-12-17T10:13:40.990Z,23.85
2022-12-17T10:16:48.873Z,19.08
2022-12-17T10:19:55.146Z,18.75
2022-12-17T10:22:40.708Z,18.67
2022-12-17T10:25:49.675Z,20.20
2022-12-17T10:28:57.662Z,19.00
2022-12-17T10:31:47.766Z,18.15
2022-12-17T10:34:37.462Z,22.02
2022-12-17T10:37:24.268Z,22.45
2022-12-17T10:40:17.846Z,20.02
2022-12-17T10:43:03.897Z,20.17
2022-12-17T10:45:52.542Z,20.15
2022-12-17T10:48:44.466Z,17.02
2022-12-17T10:51:49.822Z,15.75
2022-12-17T10:54:51.479Z,15.77
2022-12-17T10:57:48.842Z,16.20
2022-12-17T11:00:47.363Z,13.00
2022-12-17T11:04:09.623Z,15.82
2022-12-17T11:07:04.646Z,16.17
2022-12-17T11:10:10.118Z,16.30
2022-12-17T11:13:07.754Z,18.25
2022-12-17T11:16:08.912Z,17.70
2022-12-17T11:19:16.920Z,19.20
2022-12-17T11:22:07.070Z,19.85
2022-12-17T11:25:09.313Z,22.33
2022-12-17T11:28:01.941Z,22.13
2022-12-17T11:30:47.779Z,22.45
2022-12-17T11:34:04.472Z,19.25
2022-12-17T11:37:00.679Z,20.17
2022-12-17T11:40:01.862Z,22.20
2022-12-17T11:42:58.540Z,23.08
2022-12-17T11:46:00.112Z,27.23
2022-12-17T11:49:17.894Z,44.58
2022-12-17T11:52:06.838Z,36.10
2022-12-17T11:55:11.491Z,32.30
2022-12-17T11:58:19.300Z,30.70
2022-12-17T12:01:26.336Z,22.70
2022-12-17T12:04:41.065Z,22.90
2022-12-17T12:07:40.318Z,19.88
2022-12-17T12:10:35.918Z,20.30
2022-12-17T12:13:30.498Z,21.08
2022-12-17T12:16:43.553Z,21.50
2022-12-17T12:19:41.164Z,21.98
2022-12-17T12:22:34.665Z,23.00
2022-12-17T12:25:30.792Z,19.20
2022-12-17T12:28:40.727Z,19.25
2022-12-17T12:31:41.244Z,18.35
2022-12-17T12:34:32.784Z,20.50
2022-12-17T12:37:23.442Z,24.27
2022-12-17T12:40:17.882Z,18.73
2022-12-17T12:43:41.508Z,17.80
2022-12-17T12:46:42.813Z,17.33
2022-12-17T12:50:07.730Z,17.50
2022-12-17T12:52:53.074Z,22.35
2022-12-17T12:55:38.496Z,20.07
2022-12-17T12:58:43.085Z,18.43
2022-12-17T13:01:29.014Z,19.23
2022-12-17T13:04:16.702Z,17.40
2022-12-17T13:06:55.498Z,17.63
2022-12-17T13:09:32.314Z,16.13
2022-12-17T13:12:04.083Z,16.13
2022-12-17T13:14:42.782Z,15.60
2022-12-17T13:17:35.875Z,17.57
2022-12-17T13:20:20.609Z,18.52
2022-12-17T13:23:13.652Z,16.23
2022-12-17T13:25:40.600Z,16.50
2022-12-17T13:28:27.311Z,18.63
2022-12-17T13:31:06.935Z,16.98
2022-12-17T13:33:45.766Z,16.20
2022-12-17T13:36:23.441Z,17.55
2022-12-17T13:39:05.292Z,16.90
2022-12-17T13:41:34.590Z,15.75
2022-12-17T13:44:22.933Z,15.38
2022-12-17T13:46:52.286Z,15.57
2022-12-17T13:49:24.993Z,16.85
2022-12-17T13:52:06.447Z,16.65
2022-12-17T13:54:36.499Z,23.95
2022-12-17T13:57:13.473Z,19.10
2022-12-17T13:59:40.338Z,18.35
2022-12-17T14:02:07.303Z,18.15
2022-12-17T14:04:34.273Z,15.20
2022-12-17T14:07:05.762Z,18.67
2022-12-17T14:09:39.045Z,17.20
2022-12-17T14:12:35.912Z,17.45
2022-12-17T14:15:08.584Z,18.17
2022-12-17T14:17:35.236Z,16.25
2022-12-17T14:20:04.199Z,18.08
2022-12-17T14:22:37.233Z,19.25
2022-12-17T14:25:06.300Z,16.83
2022-12-17T14:27:36.109Z,17.65
2022-12-17T14:30:19.479Z,17.63
2022-12-17T14:32:46.712Z,16.70
2022-12-17T14:35:31.599Z,18.20
2022-12-17T14:37:58.442Z,16.77
2022-12-17T14:40:26.312Z,16.38
2022-12-17T14:42:58.253Z,17.60
2022-12-17T14:45:27.690Z,18.55
2022-12-17T14:48:01.862Z,19.58
2022-12-17T14:50:37.595Z,21.30
2022-12-17T14:53:25.505Z,21.60
2022-12-17T14:55:56.041Z,18.83
2022-12-17T14:58:24.913Z,18.92
2022-12-17T15:01:13.479Z,18.75
2022-12-17T15:03:43.246Z,18.00
2022-12-17T15:06:13.239Z,19.70
2022-12-17T15:08:48.322Z,18.40
2022-12-17T15:11:18.328Z,17.90
2022-12-17T15:13:45.169Z,18.20
2022-12-17T15:16:12.343Z,19.65
2022-12-17T15:18:39.816Z,18.92
2022-12-17T15:21:11.660Z,18.38
2022-12-17T15:23:43.014Z,18.30
2022-12-17T15:26:10.818Z,17.95
2022-12-17T15:28:37.691Z,17.98
2022-12-17T15:31:05.102Z,18.65
2022-12-17T15:33:31.899Z,16.45
2022-12-17T15:35:59.391Z,16.45
2022-12-17T15:38:26.135Z,18.85
2022-12-17T15:40:53.081Z,17.15
2022-12-17T15:43:19.937Z,15.48
2022-12-17T15:45:52.213Z,15.25
2022-12-17T15:48:23.223Z,17.25
2022-12-17T15:50:50.102Z,16.40
2022-12-17T15:53:16.951Z,17.20
2022-12-17T15:55:43.733Z,16.38
2022-12-17T15:58:11.576Z,16.40
2022-12-17T16:00:40.958Z,17.08
2022-12-17T16:03:07.861Z,15.38
2022-12-17T16:05:34.751Z,15.38
2022-12-17T16:08:02.635Z,17.90
2022-12-17T16:10:30.260Z,18.67
2022-12-17T16:12:57.010Z,17.63
2022-12-17T16:15:24.587Z,17.73
2022-12-17T16:17:51.535Z,18.70
2022-12-17T16:20:19.737Z,16.38
2022-12-17T16:22:46.605Z,19.05
2022-12-17T16:25:13.302Z,17.80
2022-12-17T16:27:43.062Z,17.73
2022-12-17T16:30:11.290Z,17.73
2022-12-17T16:32:38.705Z,17.58
2022-12-17T16:35:06.203Z,18.55
2022-12-17T16:37:33.086Z,18.70
2022-12-17T16:40:00.557Z,19.38
2022-12-17T16:42:27.923Z,18.45
2022-12-17T16:44:54.684Z,18.02
2022-12-17T16:47:21.664Z,16.50
2022-12-17T16:49:53.903Z,16.67
2022-12-17T16:52:20.638Z,15.32
2022-12-17T16:54:48.479Z,15.85
2022-12-17T16:57:15.590Z,16.95
2022-12-17T16:59:42.751Z,15.57
2022-12-17T17:02:14.240Z,17.48
2022-12-17T17:04:41.127Z,20.63
2022-12-17T17:07:07.896Z,16.65
2022-12-17T17:09:34.693Z,15.50
2022-12-17T17:12:01.442Z,16.38
2022-12-17T17:14:28.225Z,18.10
2022-12-17T17:16:54.971Z,18.40
2022-12-17T17:19:21.717Z,16.48
2022-12-17T17:21:51.833Z,18.15
2022-12-17T17:24:26.904Z,17.80
2022-12-17T17:26:55.106Z,19.08
2022-12-17T17:29:22.286Z,18.73
2022-12-17T17:34:52.224Z,16.15
2022-12-17T17:37:19.831Z,18.35
2022-12-17T17:39:46.595Z,17.48
2022-12-17T17:42:13.277Z,18.15
2022-12-17T17:44:40.019Z,17.02
2022-12-17T17:47:06.856Z,19.25
2022-12-17T17:49:33.888Z,20.55
2022-12-17T17:52:09.610Z,21.50
2022-12-17T17:54:37.179Z,23.30
2022-12-17T17:57:03.959Z,22.77
2022-12-17T17:59:33.838Z,24.13
2022-12-17T18:02:02.282Z,24.33
2022-12-17T18:04:29.634Z,23.08
2022-12-17T18:09:43.212Z,21.20
2022-12-17T18:12:30.247Z,21.85
2022-12-17T18:15:13.767Z,19.13
2022-12-17T18:17:41.998Z,20.73
2022-12-17T18:20:09.829Z,19.42
2022-12-17T18:22:36.937Z,23.00
2022-12-17T18:25:05.100Z,33.00
2022-12-17T18:27:31.888Z,33.65
2022-12-17T18:29:58.661Z,24.67
2022-12-17T18:32:25.699Z,22.48
2022-12-17T18:34:52.436Z,21.45
2022-12-17T18:37:19.172Z,24.10
2022-12-17T18:39:45.937Z,24.05
2022-12-17T18:42:31.309Z,25.10
2022-12-17T18:44:57.982Z,24.17
2022-12-17T18:47:25.662Z,26.77
2022-12-17T18:49:52.553Z,26.63
2022-12-17T18:52:19.631Z,24.80
2022-12-17T18:54:46.445Z,23.13
2022-12-17T18:57:13.409Z,25.25
2022-12-17T18:59:41.263Z,24.48
2022-12-17T19:02:15.259Z,24.20
2022-12-17T19:04:42.170Z,23.23
2022-12-17T19:07:09.056Z,22.73
2022-12-17T19:09:36.516Z,26.25
2022-12-17T19:12:06.251Z,25.00
2022-12-17T19:14:33.530Z,23.15
2022-12-17T19:17:00.747Z,26.35
2022-12-17T19:19:28.015Z,23.58
2022-12-17T19:21:56.065Z,26.58
2022-12-17T19:24:23.581Z,23.40
2022-12-17T19:26:50.954Z,20.75
2022-12-17T19:29:19.441Z,21.38
2022-12-17T19:31:46.806Z,20.70
2022-12-17T19:34:15.402Z,23.02
2022-12-17T19:36:42.766Z,22.83
2022-12-17T19:39:12.923Z,24.10
2022-12-17T19:41:40.208Z,23.55
2022-12-17T19:44:10.996Z,24.08
2022-12-17T19:46:37.796Z,25.20
2022-12-17T19:49:05.340Z,26.92
2022-12-17T19:51:33.086Z,25.95
2022-12-17T19:54:06.450Z,25.83
2022-12-17T19:56:35.394Z,24.45
2022-12-17T19:59:07.053Z,26.45
2022-12-17T20:01:37.385Z,25.65
2022-12-17T20:04:05.466Z,23.55
2022-12-17T20:06:36.836Z,25.10
2022-12-17T20:09:05.561Z,24.95
2022-12-17T20:11:33.010Z,25.15
2022-12-17T20:14:11.512Z,23.45
2022-12-17T20:16:44.789Z,23.23
2022-12-17T20:19:18.285Z,22.20
2022-12-17T20:21:45.335Z,25.00
2022-12-17T20:24:15.651Z,27.23
2022-12-17T20:26:43.163Z,28.20
2022-12-17T20:29:10.369Z,30.33
2022-12-17T20:31:37.376Z,27.52
2022-12-17T20:34:06.514Z,28.13
2022-12-17T20:36:33.562Z,27.42
2022-12-17T20:39:00.949Z,29.25
2022-12-17T20:41:29.707Z,30.88
2022-12-17T20:44:03.616Z,36.13
2022-12-17T20:46:30.537Z,35.08
2022-12-17T20:48:59.926Z,36.30
2022-12-17T20:51:30.126Z,34.58
2022-12-17T20:53:58.726Z,38.00
2022-12-17T20:56:28.074Z,34.38
2022-12-17T20:59:02.317Z,36.78
2022-12-17T21:01:31.907Z,37.03
2022-12-17T21:03:59.822Z,38.08
2022-12-17T21:06:32.613Z,35.55
2022-12-17T21:08:59.981Z,35.47
2022-12-17T21:11:32.317Z,35.10
2022-12-17T21:13:59.509Z,34.35
2022-12-17T21:16:30.104Z,36.60
2022-12-17T21:18:59.100Z,32.00
2022-12-17T21:21:31.594Z,30.52
2022-12-17T21:23:58.801Z,30.08
2022-12-17T21:26:29.257Z,29.77
2022-12-17T21:28:59.630Z,28.10
2022-12-17T21:31:33.334Z,29.63
2022-12-17T21:34:02.799Z,31.80
2022-12-17T21:36:31.775Z,34.00
2022-12-17T21:38:59.645Z,31.67
2022-12-17T21:41:29.142Z,32.67
2022-12-17T21:43:59.239Z,34.28
2022-12-17T21:46:27.506Z,33.00
2022-12-17T21:48:55.815Z,30.10
2022-12-17T21:51:23.637Z,33.35
2022-12-17T21:53:58.760Z,35.88
2022-12-17T21:56:26.433Z,38.50
2022-12-17T21:59:01.389Z,35.95
2022-12-17T22:01:33.429Z,35.42
2022-12-17T22:04:04.532Z,33.10
2022-12-17T22:06:38.936Z,34.88
2022-12-17T22:09:18.249Z,38.60
2022-12-17T22:12:22.129Z,39.92
2022-12-17T22:14:48.983Z,35.00
2022-12-17T22:17:16.339Z,36.22
2022-12-17T22:19:43.051Z,30.70
2022-12-17T22:22:09.778Z,32.67
2022-12-17T22:24:36.871Z,32.30
2022-12-17T22:27:04.022Z,33.90
2022-12-17T22:29:54.872Z,35.38
2022-12-17T22:32:40.382Z,32.55
2022-12-17T22:35:51.756Z,34.28
2022-12-17T22:37:55.137Z,34.67
2022-12-17T22:44:41.005Z,35.15
2022-12-17T22:44:41.331Z,32.20
2022-12-17T22:46:19.727Z,32.90
2022-12-17T22:48:47.135Z,34.90
2022-12-17T22:51:20.752Z,33.08
2022-12-17T22:54:03.627Z,32.55
2022-12-17T22:56:57.949Z,31.98
2022-12-17T22:59:18.580Z,34.25
2022-12-17T23:01:45.454Z,31.83
2022-12-17T23:04:14.248Z,33.08
2022-12-17T23:06:42.883Z,33.75
2022-12-17T23:09:09.736Z,31.23
2022-12-17T23:11:36.498Z,31.30
2022-12-17T23:14:06.075Z,33.25
2022-12-17T23:16:33.155Z,31.92
2022-12-17T23:19:01.585Z,32.15
2022-12-17T23:21:28.548Z,34.15
2022-12-17T23:23:56.504Z,34.33
2022-12-17T23:26:27.218Z,33.65
2022-12-17T23:28:59.115Z,35.05
2022-12-17T23:31:28.746Z,34.17
2022-12-17T23:33:55.731Z,35.65
2022-12-17T23:36:25.037Z,34.33
2022-12-17T23:38:53.322Z,36.17
2022-12-17T23:41:22.411Z,35.40
2022-12-17T23:43:50.314Z,34.90
2022-12-17T23:46:19.138Z,34.33
2022-12-17T23:48:47.575Z,34.53
2022-12-17T23:51:16.518Z,34.42
2022-12-17T23:53:43.972Z,33.72
2022-12-17T23:56:24.940Z,30.33
2022-12-17T23:58:53.822Z,33.35
